Time;durP1;ratioP1;P1;durP2;ratioP2;P2;SDS_P1;SDS_P2;PMS_P1;PMS_P2;Temp;Humidity;BMP_temperature;BMP_pressure;BME280_temperature;BME280_humidity;BME280_pressure;Samples;Min_cycle;Max_cycle;Signal;HPM_P1;HPM_P2
2023/04/19 00:01:38;;;;;;;27.05;18.08;;;7.20;99.90;;;;;;5086338;28;20043;-70
2023/04/19 00:04:04;;;;;;;26.55;18.45;;;7.20;99.90;;;;;;5088485;28;20488;-70
2023/04/19 00:06:30;;;;;;;26.50;18.20;;;7.20;99.90;;;;;;5086994;28;20077;-70
2023/04/19 00:08:56;;;;;;;24.42;17.27;;;7.20;99.90;;;;;;5088568;28;20040;-70
2023/04/19 00:11:23;;;;;;;25.88;19.35;;;7.20;99.90;;;;;;5087846;28;20527;-70
2023/04/19 00:13:48;;;;;;;27.90;18.77;;;7.20;99.90;;;;;;5071215;28;20056;-70
2023/04/19 00:16:15;;;;;;;24.45;17.20;;;7.20;99.90;;;;;;5072825;28;20554;-70
2023/04/19 00:18:41;;;;;;;22.02;17.30;;;7.20;99.90;;;;;;5079341;28;20041;-70
2023/04/19 00:21:07;;;;;;;23.27;17.55;;;7.20;99.90;;;;;;5087815;28;20052;-69
2023/04/19 00:23:33;;;;;;;25.25;19.10;;;7.20;99.90;;;;;;5078149;28;20039;-70
2023/04/19 00:26:02;;;;;;;24.75;18.40;;;7.30;99.90;;;;;;5075347;28;20051;-69
2023/04/19 00:28:28;;;;;;;26.42;17.25;;;7.30;99.90;;;;;;5085579;28;20045;-70
2023/04/19 00:30:54;;;;;;;25.98;20.00;;;7.20;99.90;;;;;;5087897;28;20606;-70
2023/04/19 00:33:19;;;;;;;22.17;18.40;;;7.20;99.90;;;;;;5074743;28;20443;-70
2023/04/19 00:35:45;;;;;;;20.75;17.33;;;7.20;99.90;;;;;;5076492;28;20536;-70
2023/04/19 00:38:10;;;;;;;23.52;17.55;;;7.10;99.90;;;;;;5074446;28;20767;-70
2023/04/19 00:40:37;;;;;;;21.38;17.42;;;7.10;99.90;;;;;;5078571;28;20036;-70
2023/04/19 00:43:02;;;;;;;23.00;18.58;;;7.10;99.90;;;;;;5088905;28;20561;-69
2023/04/19 00:45:28;;;;;;;23.30;19.15;;;7.00;99.90;;;;;;5087648;28;20040;-69
2023/04/19 00:47:54;;;;;;;22.70;17.48;;;7.00;99.90;;;;;;5083295;28;20426;-69
2023/04/19 00:50:21;;;;;;;19.85;16.83;;;7.00;99.90;;;;;;5105730;27;20622;-69
2023/04/19 00:52:47;;;;;;;24.58;18.73;;;7.10;99.90;;;;;;5079578;28;20060;-70
2023/04/19 00:55:13;;;;;;;24.33;17.65;;;7.00;99.90;;;;;;5087485;28;20412;-70
2023/04/19 00:57:41;;;;;;;21.73;17.92;;;7.00;99.90;;;;;;5086513;28;20052;-69
2023/04/19 01:00:08;;;;;;;25.15;19.00;;;7.10;99.90;;;;;;5087669;28;20052;-70
2023/04/19 01:02:35;;;;;;;24.13;18.98;;;7.00;99.90;;;;;;5074518;28;20044;-70
2023/04/19 01:05:00;;;;;;;23.63;18.20;;;7.00;99.90;;;;;;5085888;28;20451;-70
2023/04/19 01:07:27;;;;;;;23.83;19.17;;;7.10;99.90;;;;;;5077988;28;20048;-70
2023/04/19 01:09:53;;;;;;;28.45;18.92;;;7.00;99.90;;;;;;5080046;28;20044;-69
2023/04/19 01:12:19;;;;;;;20.63;17.08;;;7.00;99.90;;;;;;5084968;28;20093;-70
2023/04/19 01:14:44;;;;;;;22.38;17.83;;;6.90;99.90;;;;;;5075692;28;20127;-70
2023/04/19 01:17:12;;;;;;;24.40;17.25;;;6.90;99.90;;;;;;5079488;28;20047;-70
2023/04/19 01:19:38;;;;;;;25.10;18.60;;;6.90;99.90;;;;;;5087503;28;20055;-70
2023/04/19 01:22:05;;;;;;;25.08;18.50;;;6.80;99.90;;;;;;5083479;28;20306;-70
2023/04/19 01:24:31;;;;;;;28.77;18.80;;;6.80;99.90;;;;;;5086014;28;20070;-70
2023/04/19 01:26:57;;;;;;;21.95;17.58;;;6.70;99.90;;;;;;5087326;28;20589;-70
2023/04/19 01:29:23;;;;;;;26.90;18.38;;;6.70;99.90;;;;;;5086100;28;20048;-70
2023/04/19 01:31:52;;;;;;;22.90;17.77;;;6.70;99.90;;;;;;5078319;28;20094;-70
2023/04/19 01:34:18;;;;;;;28.38;18.05;;;6.70;99.90;;;;;;5086691;28;20135;-70
2023/04/19 01:36:44;;;;;;;19.73;17.58;;;6.60;99.90;;;;;;5085594;28;20070;-70
2023/04/19 01:39:10;;;;;;;31.95;20.25;;;6.60;99.90;;;;;;5078168;28;20040;-70
2023/04/19 01:41:36;;;;;;;22.67;17.73;;;6.60;99.90;;;;;;5085871;28;20055;-70
2023/04/19 01:44:02;;;;;;;26.85;19.70;;;6.50;99.90;;;;;;5079659;28;20044;-69
2023/04/19 01:46:28;;;;;;;27.08;19.77;;;6.50;99.90;;;;;;5070160;28;20036;-70
2023/04/19 01:48:53;;;;;;;29.00;20.55;;;6.40;99.90;;;;;;5083830;28;20058;-70
2023/04/19 01:51:20;;;;;;;25.27;20.25;;;6.50;99.90;;;;;;5086312;28;20055;-69
2023/04/19 01:53:52;;;;;;;24.70;19.40;;;6.40;99.90;;;;;;5078260;28;20118;-70
2023/04/19 01:56:18;;;;;;;29.00;23.33;;;6.40;99.90;;;;;;5081936;28;20052;-70
2023/04/19 01:58:43;;;;;;;27.75;20.92;;;6.40;99.90;;;;;;5072845;28;20041;-69
2023/04/19 02:01:11;;;;;;;28.48;22.73;;;6.30;99.90;;;;;;5080739;28;20102;-70
2023/04/19 02:03:38;;;;;;;29.83;23.33;;;6.30;99.90;;;;;;5084033;28;20059;-70
2023/04/19 02:06:03;;;;;;;34.50;24.15;;;6.30;99.90;;;;;;5086970;28;20097;-70
2023/04/19 02:08:29;;;;;;;32.38;24.90;;;6.30;99.90;;;;;;5081044;28;20063;-70
2023/04/19 02:10:55;;;;;;;33.03;21.98;;;6.30;99.90;;;;;;5077666;28;20051;-70
2023/04/19 02:13:20;;;;;;;31.98;23.90;;;6.20;99.90;;;;;;5090534;28;20044;-70
2023/04/19 02:15:46;;;;;;;30.13;23.10;;;6.10;99.90;;;;;;5084075;28;20028;-69
2023/04/19 02:18:12;;;;;;;36.30;24.98;;;6.10;99.90;;;;;;5095608;28;20484;-70
2023/04/19 02:20:38;;;;;;;32.65;24.58;;;6.00;99.90;;;;;;5090543;28;20105;-70
2023/04/19 02:23:03;;;;;;;27.95;22.65;;;6.00;99.90;;;;;;5088880;28;20862;-70
2023/04/19 02:25:29;;;;;;;33.35;25.40;;;6.00;99.90;;;;;;5089976;28;20617;-70
2023/04/19 02:27:55;;;;;;;33.28;25.17;;;6.00;99.90;;;;;;5090004;28;20052;-70
2023/04/19 02:30:22;;;;;;;36.60;25.58;;;6.00;99.90;;;;;;5082080;28;20047;-69
2023/04/19 02:32:48;;;;;;;31.15;22.83;;;6.00;99.90;;;;;;5088394;28;20273;-69
2023/04/19 02:35:14;;;;;;;31.73;24.15;;;5.90;99.90;;;;;;5086361;28;20040;-70
2023/04/19 02:37:41;;;;;;;39.10;25.17;;;5.90;99.90;;;;;;5080672;28;20043;-70
2023/04/19 02:40:07;;;;;;;39.47;24.73;;;5.90;99.90;;;;;;5087601;28;20134;-70
2023/04/19 02:42:33;;;;;;;33.75;25.50;;;5.90;99.90;;;;;;5080301;28;20100;-69
2023/04/19 02:44:59;;;;;;;30.85;22.75;;;5.80;99.90;;;;;;5087393;28;20919;-69
2023/04/19 02:47:24;;;;;;;33.22;23.10;;;5.80;99.90;;;;;;5078759;28;20051;-70
2023/04/19 02:49:50;;;;;;;34.30;25.15;;;5.80;99.90;;;;;;5071673;28;20044;-70
2023/04/19 02:52:16;;;;;;;37.47;24.05;;;5.80;99.90;;;;;;5078486;28;20056;-70
2023/04/19 02:54:42;;;;;;;31.83;24.05;;;5.70;99.90;;;;;;5082045;28;20052;-70
2023/04/19 02:57:07;;;;;;;35.78;23.98;;;5.70;99.90;;;;;;5083767;28;20142;-70
2023/04/19 02:59:34;;;;;;;32.97;24.75;;;5.70;99.90;;;;;;5089414;28;20040;-70
2023/04/19 03:02:00;;;;;;;30.13;23.15;;;5.60;99.90;;;;;;5084553;28;20081;-70
2023/04/19 03:04:27;;;;;;;30.67;24.38;;;5.60;99.90;;;;;;5080950;28;20047;-70
2023/04/19 03:06:53;;;;;;;31.60;22.83;;;5.60;99.90;;;;;;5082324;28;20043;-70
2023/04/19 03:09:21;;;;;;;27.65;21.83;;;5.50;99.90;;;;;;5089655;28;20278;-70
2023/04/19 03:11:46;;;;;;;31.45;22.20;;;5.50;99.90;;;;;;5114105;27;20078;-70
2023/04/19 03:14:12;;;;;;;31.95;21.92;;;5.50;99.90;;;;;;5072674;28;20123;-70
2023/04/19 03:16:38;;;;;;;28.90;21.63;;;5.50;99.90;;;;;;5088362;28;20040;-69
2023/04/19 03:19:03;;;;;;;30.15;20.88;;;5.40;99.90;;;;;;5092435;28;20116;-70
2023/04/19 03:21:29;;;;;;;22.13;19.48;;;5.50;99.90;;;;;;5087152;28;20162;-70
2023/04/19 03:23:55;;;;;;;30.80;22.33;;;5.40;99.90;;;;;;5080135;28;20073;-70
2023/04/19 03:26:20;;;;;;;25.20;20.45;;;5.40;99.90;;;;;;5087824;28;20048;-70
2023/04/19 03:28:47;;;;;;;30.33;20.42;;;5.30;99.90;;;;;;5087628;28;20229;-70
2023/04/19 03:31:14;;;;;;;29.50;21.65;;;5.30;99.90;;;;;;5087506;28;20048;-69
2023/04/19 03:33:39;;;;;;;24.42;19.23;;;5.30;99.90;;;;;;5088590;28;20059;-70
2023/04/19 03:36:05;;;;;;;27.27;20.73;;;5.30;99.90;;;;;;5087742;28;20071;-69
2023/04/19 03:38:31;;;;;;;27.48;20.00;;;5.20;99.90;;;;;;5086206;28;20047;-70
2023/04/19 03:40:57;;;;;;;32.45;20.00;;;5.10;99.90;;;;;;5076529;28;20059;-70
2023/04/19 03:43:25;;;;;;;27.10;18.00;;;5.10;99.90;;;;;;5087735;28;20044;-69
2023/04/19 03:45:51;;;;;;;29.38;20.10;;;5.00;99.90;;;;;;5087291;28;20047;-69
2023/04/19 03:48:17;;;;;;;26.35;19.77;;;5.00;99.90;;;;;;5088744;28;20047;-71
2023/04/19 03:50:43;;;;;;;28.10;18.33;;;5.00;99.90;;;;;;5088259;28;20138;-70
2023/04/19 03:53:09;;;;;;;26.63;18.75;;;5.00;99.90;;;;;;5088429;28;20417;-69
2023/04/19 03:55:35;;;;;;;28.88;20.85;;;5.00;99.90;;;;;;5083114;28;20066;-69
2023/04/19 03:58:00;;;;;;;30.02;22.08;;;4.90;99.90;;;;;;5084664;28;20423;-70
2023/04/19 04:00:26;;;;;;;27.85;18.88;;;4.90;99.90;;;;;;5086130;28;20088;-69
2023/04/19 04:02:52;;;;;;;25.90;19.38;;;4.80;99.90;;;;;;5086683;28;20051;-70
2023/04/19 04:05:18;;;;;;;30.80;20.85;;;4.80;99.90;;;;;;5088142;28;20400;-69
2023/04/19 04:07:44;;;;;;;22.58;18.20;;;4.80;99.90;;;;;;5088160;28;20075;-69
2023/04/19 04:10:10;;;;;;;25.70;19.60;;;4.70;99.90;;;;;;5088658;28;20081;-69
2023/04/19 04:12:36;;;;;;;26.55;19.73;;;4.70;99.90;;;;;;5075716;28;20070;-70
2023/04/19 04:15:01;;;;;;;24.02;18.05;;;4.60;99.90;;;;;;5086523;28;20052;-69
2023/04/19 04:17:28;;;;;;;27.23;19.17;;;4.60;99.90;;;;;;5083789;28;20548;-70
2023/04/19 04:19:54;;;;;;;24.88;18.80;;;4.60;99.90;;;;;;5084991;28;20795;-69
2023/04/19 04:22:20;;;;;;;23.63;17.45;;;4.60;99.90;;;;;;5082183;28;20043;-69
2023/04/19 04:24:48;;;;;;;26.52;19.23;;;4.70;99.90;;;;;;5082217;28;20048;-69
2023/04/19 04:27:13;;;;;;;27.92;20.02;;;4.60;99.90;;;;;;5084784;28;20123;-69
2023/04/19 04:29:40;;;;;;;26.02;19.88;;;4.60;99.90;;;;;;5080624;28;20131;-69
2023/04/19 04:32:10;;;;;;;23.15;18.02;;;4.60;99.90;;;;;;5079699;28;20489;-69
2023/04/19 04:34:36;;;;;;;24.73;17.60;;;4.70;99.90;;;;;;5076915;28;20047;-69
2023/04/19 04:37:02;;;;;;;27.85;18.05;;;4.70;99.90;;;;;;5091225;28;20797;-69
2023/04/19 04:39:28;;;;;;;23.33;17.70;;;4.70;99.90;;;;;;5079194;28;20040;-69
2023/04/19 04:41:56;;;;;;;21.27;16.63;;;4.60;99.90;;;;;;5081043;28;20523;-69
2023/04/19 04:44:22;;;;;;;22.65;16.15;;;4.60;99.90;;;;;;5077318;28;20056;-69
2023/04/19 04:46:48;;;;;;;22.58;16.65;;;4.60;99.90;;;;;;5069698;28;20045;-69
2023/04/19 04:49:14;;;;;;;23.58;17.30;;;4.80;99.90;;;;;;5086179;28;20074;-69
2023/04/19 04:51:39;;;;;;;18.40;15.35;;;5.10;99.90;;;;;;5085048;28;20055;-69
2023/04/19 04:54:05;;;;;;;23.88;16.60;;;5.20;99.90;;;;;;5087472;28;20059;-69
2023/04/19 04:56:31;;;;;;;34.63;16.85;;;5.40;99.90;;;;;;5075588;28;20072;-69
2023/04/19 04:58:58;;;;;;;18.23;15.52;;;5.50;99.90;;;;;;5084241;28;20147;-69
2023/04/19 05:01:23;;;;;;;22.65;17.65;;;5.70;99.90;;;;;;5078847;28;20123;-69
2023/04/19 05:03:50;;;;;;;20.33;15.43;;;6.00;99.90;;;;;;5079295;28;20437;-69
2023/04/19 05:06:16;;;;;;;25.90;17.35;;;6.40;99.90;;;;;;5085767;28;20040;-69
2023/04/19 05:08:43;;;;;;;19.08;15.75;;;6.60;99.90;;;;;;5083025;28;20048;-69
2023/04/19 05:11:08;;;;;;;23.70;17.45;;;6.80;99.90;;;;;;5087054;28;20044;-69
2023/04/19 05:13:34;;;;;;;20.02;15.00;;;7.00;99.90;;;;;;5084088;28;20043;-70
2023/04/19 05:16:00;;;;;;;21.40;14.68;;;7.10;99.90;;;;;;5084561;28;20117;-70
2023/04/19 05:18:25;;;;;;;19.10;14.77;;;7.30;99.90;;;;;;5090569;28;20048;-69
2023/04/19 05:20:51;;;;;;;21.00;15.25;;;7.40;99.90;;;;;;5079071;28;20041;-69
2023/04/19 05:23:17;;;;;;;24.20;16.48;;;7.60;99.90;;;;;;5078511;28;20048;-70
2023/04/19 05:25:43;;;;;;;20.65;14.90;;;7.60;99.90;;;;;;5073435;28;20040;-69
2023/04/19 05:28:08;;;;;;;18.85;14.40;;;7.60;99.90;;;;;;5077778;28;20044;-69
2023/04/19 05:30:35;;;;;;;22.38;15.25;;;7.60;99.90;;;;;;5083952;28;20119;-70
2023/04/19 05:33:01;;;;;;;16.73;14.88;;;7.70;99.90;;;;;;5079810;28;20075;-69
2023/04/19 05:35:27;;;;;;;18.83;13.63;;;7.60;99.90;;;;;;5074583;28;20501;-69
2023/04/19 05:37:53;;;;;;;20.45;13.43;;;7.70;99.90;;;;;;5073343;28;20511;-69
2023/04/19 05:40:19;;;;;;;17.67;14.18;;;7.60;99.90;;;;;;5079104;28;20048;-70
2023/04/19 05:42:45;;;;;;;16.75;12.95;;;7.70;99.90;;;;;;5083316;28;20954;-69
2023/04/19 05:45:11;;;;;;;18.75;13.80;;;7.80;99.90;;;;;;5083034;28;20036;-69
2023/04/19 05:47:37;;;;;;;17.67;14.25;;;7.80;99.90;;;;;;5081551;28;20519;-69
2023/04/19 05:50:06;;;;;;;20.48;13.45;;;7.70;99.90;;;;;;5077901;28;20059;-69
2023/04/19 05:52:32;;;;;;;16.05;13.57;;;7.30;99.90;;;;;;5082304;28;20060;-70
2023/04/19 05:54:58;;;;;;;17.80;13.73;;;6.80;99.90;;;;;;5081432;28;20052;-69
2023/04/19 05:57:24;;;;;;;20.77;14.32;;;6.70;99.90;;;;;;5090281;28;20028;-69
2023/04/19 05:59:50;;;;;;;16.83;13.85;;;6.60;99.90;;;;;;5082345;28;20055;-69
2023/04/19 06:02:16;;;;;;;15.13;12.63;;;6.90;99.90;;;;;;5076639;28;20040;-69
2023/04/19 06:04:41;;;;;;;19.85;13.05;;;7.10;99.90;;;;;;5088844;28;20051;-70
2023/04/19 06:07:09;;;;;;;18.38;12.15;;;7.10;99.90;;;;;;5089740;28;20040;-69
2023/04/19 06:09:35;;;;;;;16.05;13.80;;;7.10;99.90;;;;;;5089649;28;20051;-69
2023/04/19 06:12:01;;;;;;;17.25;11.93;;;7.10;99.90;;;;;;5082104;28;20040;-69
2023/04/19 06:14:28;;;;;;;19.83;12.00;;;7.10;99.90;;;;;;5081760;28;20052;-69
2023/04/19 06:16:53;;;;;;;15.80;13.13;;;7.00;99.90;;;;;;5090176;28;20493;-70
2023/04/19 06:19:20;;;;;;;20.83;12.88;;;7.00;99.90;;;;;;5088108;28;20048;-70
2023/04/19 06:21:46;;;;;;;22.40;11.88;;;7.00;99.90;;;;;;5078125;28;20058;-69
2023/04/19 06:24:12;;;;;;;15.18;12.00;;;7.10;99.90;;;;;;5080870;28;20055;-69
2023/04/19 06:26:37;;;;;;;15.18;10.80;;;7.10;99.90;;;;;;5083864;28;20039;-69
2023/04/19 06:29:03;;;;;;;15.70;12.18;;;7.20;99.90;;;;;;5088391;28;20063;-69
2023/04/19 06:31:29;;;;;;;15.05;11.20;;;7.30;99.90;;;;;;5085450;28;20040;-69
2023/04/19 06:33:55;;;;;;;15.98;11.57;;;7.40;99.90;;;;;;5075981;28;20147;-69
2023/04/19 06:36:20;;;;;;;18.58;10.60;;;7.50;99.90;;;;;;5083167;28;20522;-69
2023/04/19 06:38:46;;;;;;;23.00;12.77;;;7.50;99.90;;;;;;5084229;28;20045;-69
2023/04/19 06:41:12;;;;;;;15.93;10.48;;;7.60;99.90;;;;;;5085014;28;20483;-70
2023/04/19 06:43:41;;;;;;;14.02;9.88;;;7.70;99.90;;;;;;5083581;28;20563;-70
2023/04/19 06:46:08;;;;;;;12.45;10.38;;;7.70;99.90;;;;;;5072467;28;20094;-69
2023/04/19 06:48:34;;;;;;;16.55;10.25;;;7.70;99.90;;;;;;5104774;28;20048;-70
2023/04/19 06:51:00;;;;;;;14.02;10.25;;;7.80;99.90;;;;;;5077824;28;20057;-70
2023/04/19 06:53:26;;;;;;;18.80;11.68;;;7.80;99.90;;;;;;5072804;28;20165;-70
2023/04/19 06:56:01;;;;;;;14.98;10.85;;;8.00;99.90;;;;;;5077536;28;20039;-70
2023/04/19 06:58:27;;;;;;;14.45;9.52;;;8.10;99.90;;;;;;5080190;28;20162;-70
2023/04/19 07:00:55;;;;;;;13.27;9.77;;;8.20;99.90;;;;;;5082036;28;20043;-70
2023/04/19 07:03:21;;;;;;;14.55;10.07;;;8.30;99.90;;;;;;5083078;28;20497;-70
2023/04/19 07:05:46;;;;;;;13.90;9.48;;;8.40;99.90;;;;;;5087661;28;20052;-70
2023/04/19 07:08:12;;;;;;;13.10;9.98;;;8.50;99.90;;;;;;5086778;28;20565;-69
2023/04/19 07:10:38;;;;;;;13.18;9.38;;;8.60;99.90;;;;;;5087201;28;20044;-69
2023/04/19 07:13:03;;;;;;;16.02;8.38;;;8.70;99.90;;;;;;5074941;28;20051;-70
2023/04/19 07:15:29;;;;;;;14.63;8.40;;;8.80;99.90;;;;;;5078319;28;20041;-69
2023/04/19 07:17:57;;;;;;;30.35;9.07;;;8.90;99.90;;;;;;5086014;28;20619;-70
2023/04/19 07:20:22;;;;;;;11.05;7.93;;;8.90;99.90;;;;;;5078508;28;20484;-70
2023/04/19 07:22:48;;;;;;;8.57;7.20;;;9.00;99.90;;;;;;5074706;28;20079;-71
2023/04/19 07:25:14;;;;;;;8.30;7.22;;;9.10;99.90;;;;;;5081257;28;20070;-70
2023/04/19 07:27:39;;;;;;;8.60;7.07;;;9.20;99.90;;;;;;5082490;28;20051;-70
2023/04/19 07:30:06;;;;;;;17.80;7.63;;;9.20;99.90;;;;;;5075884;28;20165;-70
2023/04/19 07:32:31;;;;;;;12.60;7.28;;;9.30;99.90;;;;;;5117585;27;20803;-70
2023/04/19 07:34:57;;;;;;;10.07;7.20;;;9.30;99.90;;;;;;5069398;28;20048;-70
2023/04/19 07:37:23;;;;;;;8.98;6.93;;;9.50;99.90;;;;;;5078367;28;20491;-70
2023/04/19 07:39:48;;;;;;;11.05;7.38;;;9.50;99.90;;;;;;5084747;28;20528;-70
2023/04/19 07:42:14;;;;;;;11.35;7.70;;;9.60;99.90;;;;;;5084415;28;20492;-69
2023/04/19 07:44:39;;;;;;;11.30;7.13;;;9.80;99.90;;;;;;5078437;28;21534;-70
2023/04/19 07:47:05;;;;;;;8.60;7.13;;;9.80;99.90;;;;;;5079366;28;20044;-69
2023/04/19 07:49:33;;;;;;;11.45;9.45;;;9.90;96.80;;;;;;5080642;28;20051;-70
2023/04/19 07:52:00;;;;;;;18.27;7.78;;;9.90;95.20;;;;;;5079688;28;20150;-70
2023/04/19 07:54:26;;;;;;;12.75;7.03;;;10.00;94.20;;;;;;5083200;28;20044;-70
2023/04/19 07:56:53;;;;;;;11.23;7.55;;;10.00;95.50;;;;;;5086290;28;20048;-70
2023/04/19 07:59:18;;;;;;;9.60;7.90;;;10.20;95.40;;;;;;5087546;28;20048;-71
2023/04/19 08:01:44;;;;;;;10.55;7.68;;;10.20;92.20;;;;;;5085800;28;20052;-70
2023/04/19 08:04:10;;;;;;;8.98;7.93;;;10.30;96.00;;;;;;5082693;28;20037;-70
2023/04/19 08:06:38;;;;;;;9.50;6.95;;;10.30;90.10;;;;;;5085264;28;20032;-69
2023/04/19 08:09:04;;;;;;;9.57;6.97;;;10.30;90.10;;;;;;5083655;28;20040;-69
2023/04/19 08:11:30;;;;;;;9.15;7.22;;;10.40;90.50;;;;;;5089348;28;20043;-70
2023/04/19 08:13:55;;;;;;;10.55;6.95;;;10.40;85.40;;;;;;5086204;28;20602;-70
2023/04/19 08:16:21;;;;;;;10.90;7.03;;;10.50;87.70;;;;;;5086587;28;20040;-70
2023/04/19 08:18:50;;;;;;;10.10;6.60;;;10.60;85.90;;;;;;5088202;28;20501;-69
2023/04/19 08:21:16;;;;;;;18.98;8.20;;;10.70;83.20;;;;;;5121526;27;20044;-70
2023/04/19 08:23:42;;;;;;;7.50;6.38;;;10.80;85.40;;;;;;5077723;28;20071;-70
2023/04/19 08:26:07;;;;;;;12.07;6.72;;;11.00;81.30;;;;;;5077669;28;20048;-69
2023/04/19 08:28:33;;;;;;;9.02;7.03;;;11.00;79.70;;;;;;5082680;28;20039;-69
2023/04/19 08:30:59;;;;;;;8.20;5.60;;;11.10;80.90;;;;;;5089900;28;20568;-69
2023/04/19 08:33:27;;;;;;;7.85;6.38;;;11.10;77.20;;;;;;5079546;28;20894;-69
2023/04/19 08:35:53;;;;;;;6.65;5.95;;;11.10;73.60;;;;;;5081976;28;20071;-70
2023/04/19 08:38:19;;;;;;;10.82;7.00;;;11.10;75.90;;;;;;5081673;28;20095;-70
2023/04/19 08:40:50;;;;;;;9.77;5.80;;;11.20;76.10;;;;;;5081917;28;20056;-70
2023/04/19 08:43:17;;;;;;;8.55;5.47;;;11.30;75.50;;;;;;5070062;28;20137;-70
2023/04/19 08:45:45;;;;;;;7.75;6.35;;;11.40;74.10;;;;;;5084477;28;20046;-70
2023/04/19 08:48:12;;;;;;;6.88;4.97;;;11.40;71.50;;;;;;5075714;28;20039;-70
2023/04/19 08:50:40;;;;;;;6.95;5.40;;;11.60;71.30;;;;;;5074456;28;20459;-69
2023/04/19 08:53:09;;;;;;;13.85;5.85;;;11.60;68.40;;;;;;5071739;28;20048;-69
2023/04/19 08:55:40;;;;;;;12.02;6.53;;;11.50;66.40;;;;;;5077776;28;20091;-69
2023/04/19 08:58:06;;;;;;;7.55;5.68;;;11.70;70.20;;;;;;5073656;28;20044;-70
2023/04/19 09:00:33;;;;;;;6.60;5.85;;;12.00;72.30;;;;;;5083210;28;20110;-69
2023/04/19 09:02:59;;;;;;;5.68;5.07;;;11.90;70.30;;;;;;5071915;28;20059;-70
2023/04/19 09:05:25;;;;;;;7.53;5.05;;;11.90;68.90;;;;;;5083724;28;20040;-70
2023/04/19 09:07:50;;;;;;;7.60;5.78;;;11.90;67.30;;;;;;5090878;28;20412;-69
2023/04/19 09:10:18;;;;;;;9.23;5.22;;;12.00;69.60;;;;;;5094662;28;20043;-70
2023/04/19 09:13:02;;;;;;;10.38;4.57;;;12.10;67.90;;;;;;5088156;28;20101;-70
2023/04/19 09:15:39;;;;;;;7.53;5.32;;;12.20;64.20;;;;;;5085909;28;20039;-70
2023/04/19 09:18:08;;;;;;;16.47;6.00;;;12.30;64.80;;;;;;5088356;28;20471;-70
2023/04/19 09:20:42;;;;;;;8.32;5.60;;;12.40;64.50;;;;;;5086133;28;20044;-70
2023/04/19 09:23:11;;;;;;;5.90;4.28;;;12.40;63.20;;;;;;5085728;28;21024;-70
2023/04/19 09:25:56;;;;;;;6.85;5.45;;;12.40;61.50;;;;;;5082842;28;20098;-70
2023/04/19 09:28:22;;;;;;;7.28;4.95;;;12.40;61.20;;;;;;5086782;28;20020;-70
2023/04/19 09:30:48;;;;;;;8.80;5.88;;;12.50;63.80;;;;;;5081315;28;20819;-70
2023/04/19 09:33:33;;;;;;;6.70;4.38;;;12.60;61.40;;;;;;5082946;28;20138;-70
2023/04/19 09:36:00;;;;;;;6.47;4.65;;;12.70;63.40;;;;;;5082822;28;20079;-71
2023/04/19 09:38:26;;;;;;;7.40;4.53;;;12.80;62.30;;;;;;5083932;28;20051;-72
2023/04/19 09:41:04;;;;;;;13.40;5.13;;;12.90;60.60;;;;;;5087637;28;20045;-71
2023/04/19 09:43:29;;;;;;;9.00;4.85;;;12.80;59.80;;;;;;5075612;28;20574;-71
2023/04/19 09:45:55;;;;;;;20.92;6.07;;;13.10;62.40;;;;;;5082802;28;20036;-71
2023/04/19 09:48:22;;;;;;;11.77;5.70;;;13.20;62.00;;;;;;5073713;28;20198;-71
2023/04/19 09:50:58;;;;;;;6.57;4.97;;;13.20;62.00;;;;;;5087318;28;20048;-71
2023/04/19 09:53:25;;;;;;;7.50;5.40;;;13.40;60.30;;;;;;5078316;28;20052;-71
2023/04/19 09:55:51;;;;;;;8.35;4.63;;;13.30;58.50;;;;;;5085465;28;20055;-71
2023/04/19 09:58:18;;;;;;;5.70;4.75;;;13.20;58.20;;;;;;5088961;28;20056;-71
2023/04/19 10:00:46;;;;;;;7.85;5.45;;;13.30;60.60;;;;;;5082215;28;20048;-70
2023/04/19 10:03:16;;;;;;;9.52;5.65;;;13.30;58.80;;;;;;5072313;28;20088;-71
2023/04/19 10:05:44;;;;;;;5.97;5.13;;;13.30;57.00;;;;;;5085804;28;20065;-70
2023/04/19 10:08:11;;;;;;;6.90;5.47;;;13.30;55.40;;;;;;5094556;28;20122;-70
2023/04/19 10:10:39;;;;;;;6.35;5.75;;;13.30;56.90;;;;;;5087634;28;20048;-71
2023/04/19 10:13:10;;;;;;;7.57;5.10;;;13.40;56.90;;;;;;5090237;28;20176;-71
2023/04/19 10:15:36;;;;;;;6.63;4.45;;;13.50;55.70;;;;;;5090399;28;20052;-71
2023/04/19 10:18:04;;;;;;;7.10;5.43;;;13.70;57.70;;;;;;5090044;28;20040;-71
2023/04/19 10:20:53;;;;;;;8.50;4.82;;;13.80;55.80;;;;;;5087850;28;20051;-71
2023/04/19 10:23:20;;;;;;;8.20;5.40;;;13.70;55.10;;;;;;5087995;28;20048;-71
2023/04/19 10:25:47;;;;;;;5.95;4.55;;;13.70;54.50;;;;;;5105116;27;20102;-71
2023/04/19 10:28:17;;;;;;;22.58;6.85;;;13.60;55.40;;;;;;5122137;27;20101;-70
2023/04/19 10:31:02;;;;;;;7.32;5.05;;;13.70;56.50;;;;;;5089090;28;20055;-71
2023/04/19 10:33:35;;;;;;;9.23;5.80;;;13.90;56.00;;;;;;5088096;28;20066;-71
2023/04/19 10:36:02;;;;;;;8.25;5.43;;;13.90;55.10;;;;;;5088150;28;20123;-70
2023/04/19 10:38:47;;;;;;;5.90;4.80;;;14.00;57.00;;;;;;5089805;28;20237;-71
2023/04/19 10:41:14;;;;;;;7.35;5.15;;;13.90;53.90;;;;;;5085481;28;20052;-71
2023/04/19 10:43:47;;;;;;;5.95;4.72;;;14.00;54.80;;;;;;5084217;28;20039;-71
2023/04/19 10:46:23;;;;;;;7.00;5.22;;;14.10;57.00;;;;;;5122774;27;20044;-71
2023/04/19 10:48:52;;;;;;;5.07;4.13;;;14.30;55.90;;;;;;5090255;28;20063;-70
2023/04/19 10:51:20;;;;;;;6.45;4.10;;;14.30;55.10;;;;;;5087654;28;20082;-71
2023/04/19 10:53:51;;;;;;;7.72;5.13;;;14.30;54.90;;;;;;5083428;28;20546;-71
2023/04/19 10:56:20;;;;;;;4.65;4.22;;;14.40;56.30;;;;;;5089730;28;20132;-71
2023/04/19 10:59:01;;;;;;;8.00;4.82;;;14.30;53.80;;;;;;5085690;28;20052;-71
2023/04/19 11:01:37;;;;;;;8.07;4.70;;;14.30;55.60;;;;;;5106759;27;20056;-72
2023/04/19 11:04:03;;;;;;;5.78;5.07;;;14.30;53.40;;;;;;5089399;28;20051;-71
2023/04/19 11:06:28;;;;;;;9.07;4.78;;;14.40;54.60;;;;;;5080719;28;20040;-71
2023/04/19 11:08:54;;;;;;;12.57;4.95;;;14.30;54.40;;;;;;5081312;28;20047;-72
2023/04/19 11:11:20;;;;;;;5.85;4.50;;;14.40;55.10;;;;;;5110640;27;20047;-71
2023/04/19 11:13:49;;;;;;;7.28;4.68;;;14.40;54.40;;;;;;5088317;28;20075;-71
2023/04/19 11:16:15;;;;;;;8.60;5.38;;;14.60;55.70;;;;;;5086329;28;20048;-71
2023/04/19 11:18:40;;;;;;;5.55;4.97;;;14.60;54.20;;;;;;5089095;28;20044;-71
2023/04/19 11:21:11;;;;;;;7.57;4.65;;;14.50;53.80;;;;;;5088663;28;20797;-71
2023/04/19 11:23:36;;;;;;;6.50;5.22;;;14.50;54.40;;;;;;5085479;28;20115;-70
2023/04/19 11:26:02;;;;;;;7.28;5.75;;;14.60;53.50;;;;;;5083729;28;20131;-71
2023/04/19 11:28:28;;;;;;;8.25;6.72;;;14.60;54.00;;;;;;5075340;28;20043;-71
2023/04/19 11:30:54;;;;;;;6.25;5.55;;;14.60;55.20;;;;;;5077522;28;20046;-72
2023/04/19 11:33:23;;;;;;;6.55;5.35;;;14.60;54.10;;;;;;5078791;28;20127;-72
2023/04/19 11:35:58;;;;;;;7.88;5.53;;;14.60;54.80;;;;;;5083098;28;20087;-71
2023/04/19 11:38:26;;;;;;;8.32;6.65;;;14.70;55.20;;;;;;5084559;28;20040;-71
2023/04/19 11:41:03;;;;;;;6.20;5.50;;;14.60;54.50;;;;;;5087635;28;20058;-72
2023/04/19 11:43:33;;;;;;;7.20;5.88;;;14.70;54.20;;;;;;5072456;28;20051;-72
2023/04/19 11:46:10;;;;;;;7.95;5.60;;;14.60;53.30;;;;;;5075808;28;20481;-72
2023/04/19 11:48:37;;;;;;;6.75;6.03;;;14.60;55.10;;;;;;5080207;28;20036;-72
2023/04/19 11:51:03;;;;;;;6.40;5.13;;;14.60;56.60;;;;;;5087320;28;20054;-72
2023/04/19 11:53:31;;;;;;;12.55;7.75;;;14.70;55.70;;;;;;5085786;28;20051;-73
2023/04/19 11:56:08;;;;;;;36.60;8.88;;;14.70;57.30;;;;;;5085060;28;20131;-72
2023/04/19 11:58:48;;;;;;;8.38;7.18;;;14.80;55.90;;;;;;5083520;28;20052;-72
2023/04/19 12:01:21;;;;;;;17.83;7.78;;;14.80;56.80;;;;;;5083227;28;20997;-72
2023/04/19 12:03:52;;;;;;;9.40;6.82;;;14.70;56.70;;;;;;5084386;28;20137;-72
2023/04/19 12:06:22;;;;;;;11.00;6.78;;;14.60;55.80;;;;;;5080346;28;20405;-72
2023/04/19 12:08:50;;;;;;;23.83;9.23;;;14.60;56.90;;;;;;5087455;28;20059;-72
2023/04/19 12:11:17;;;;;;;;;;;14.60;57.10;;;;;;5057004;28;20131;-72
2023/04/19 12:13:43;;;;;;;15.57;7.88;;;14.60;56.70;;;;;;5083155;28;19924;-73
2023/04/19 12:16:12;;;;;;;10.55;6.85;;;14.70;57.80;;;;;;5067359;28;20040;-72
2023/04/19 12:18:47;;;;;;;35.47;10.13;;;14.80;56.80;;;;;;5086173;28;20070;-72
2023/04/19 12:21:33;;;;;;;12.38;7.45;;;14.70;57.50;;;;;;5112656;27;20048;-72
2023/04/19 12:24:00;;;;;;;44.88;10.32;;;14.90;57.00;;;;;;5050397;28;20056;-72
2023/04/19 12:26:29;;;;;;;10.73;7.15;;;14.70;57.30;;;;;;5073273;28;20044;-71
2023/04/19 12:28:57;;;;;;;9.88;6.88;;;14.70;58.10;;;;;;5081821;28;20055;-71
2023/04/19 12:31:23;;;;;;;14.23;8.27;;;14.60;58.10;;;;;;5065906;28;20040;-73
2023/04/19 12:33:49;;;;;;;13.98;8.52;;;14.60;59.30;;;;;;5072703;28;20053;-72
2023/04/19 12:36:16;;;;;;;8.75;7.88;;;14.80;62.30;;;;;;5072596;28;20052;-72
2023/04/19 12:38:42;;;;;;;10.48;7.50;;;14.90;60.80;;;;;;5074803;28;20039;-72
2023/04/19 12:41:08;;;;;;;46.20;10.27;;;14.80;60.00;;;;;;5082757;28;20036;-71